Time;durP1;ratioP1;P1;durP2;ratioP2;P2;SDS_P1;SDS_P2;PMS_P1;PMS_P2;Temp;Humidity;BMP_temperature;BMP_pressure;BME280_temperature;BME280_humidity;BME280_pressure;Samples;Min_cycle;Max_cycle;Signal;HPM_P1;HPM_P2
2022/07/12 00:02:18;;;;;;;3.50;2.92;;;24.20;70.50;;;;;;4965243;28;20055;-87
2022/07/12 00:04:44;;;;;;;3.17;2.90;;;24.10;70.50;;;;;;4949045;28;20029;-86
2022/07/12 00:07:10;;;;;;;2.88;2.67;;;24.10;70.70;;;;;;4966758;28;20109;-86
2022/07/12 00:09:36;;;;;;;3.03;2.78;;;24.10;70.90;;;;;;5003746;28;20056;-86
2022/07/12 00:12:03;;;;;;;2.58;2.38;;;24.10;70.50;;;;;;5012162;28;20200;-86
2022/07/12 00:14:29;;;;;;;2.90;2.70;;;24.10;70.60;;;;;;5000275;28;20539;-87
2022/07/12 00:16:54;;;;;;;3.22;2.67;;;24.10;70.50;;;;;;5016452;28;20096;-87
2022/07/12 00:19:20;;;;;;;2.70;2.53;;;24.10;70.30;;;;;;5049597;28;20062;-90
2022/07/12 00:21:46;;;;;;;3.58;2.65;;;24.10;70.30;;;;;;5001063;28;20035;-88
2022/07/12 00:24:12;;;;;;;2.88;2.65;;;24.10;70.30;;;;;;5017076;28;20039;-87
2022/07/12 00:26:38;;;;;;;3.45;2.90;;;24.10;70.50;;;;;;5032383;28;20068;-87
2022/07/12 00:29:04;;;;;;;3.08;2.83;;;24.10;70.80;;;;;;5033701;28;20139;-87
2022/07/12 00:31:30;;;;;;;2.97;2.70;;;24.10;71.10;;;;;;4967854;28;20081;-87
2022/07/12 00:33:56;;;;;;;2.85;2.63;;;24.10;70.80;;;;;;5034189;28;20045;-87
2022/07/12 00:36:22;;;;;;;8.93;3.10;;;24.10;70.70;;;;;;4991954;28;20044;-86
2022/07/12 00:38:48;;;;;;;2.90;2.70;;;24.00;70.60;;;;;;4951324;28;20134;-86
2022/07/12 00:41:14;;;;;;;4.88;2.92;;;24.00;70.80;;;;;;4967633;28;20058;-86
2022/07/12 00:43:40;;;;;;;6.63;3.25;;;24.00;70.90;;;;;;4952628;28;20030;-85
2022/07/12 00:46:06;;;;;;;4.13;3.33;;;24.00;70.80;;;;;;4974125;28;20092;-86
2022/07/12 00:48:33;;;;;;;2.97;2.78;;;24.00;70.60;;;;;;4958191;28;20034;-84
2022/07/12 00:51:00;;;;;;;7.07;2.92;;;24.10;70.70;;;;;;4984972;28;20153;-84
2022/07/12 00:53:26;;;;;;;4.50;2.78;;;24.10;70.40;;;;;;4963836;28;20042;-86
2022/07/12 00:55:58;;;;;;;2.97;2.70;;;24.10;70.60;;;;;;4963831;28;20030;-84
2022/07/12 00:58:26;;;;;;;3.40;3.10;;;24.10;70.60;;;;;;4962343;28;20027;-86
2022/07/12 01:00:54;;;;;;;3.85;2.70;;;24.10;70.60;;;;;;4948208;28;20394;-85
2022/07/12 01:03:20;;;;;;;3.65;2.90;;;24.10;70.90;;;;;;5011530;28;20402;-85
2022/07/12 01:05:47;;;;;;;3.00;2.72;;;24.10;71.00;;;;;;5020323;28;20039;-85
2022/07/12 01:08:14;;;;;;;3.70;3.17;;;24.10;71.20;;;;;;4947888;28;20041;-85
2022/07/12 01:10:41;;;;;;;5.50;3.67;;;24.00;71.60;;;;;;4966279;28;20042;-87
2022/07/12 01:13:08;;;;;;;5.32;3.50;;;24.00;71.70;;;;;;4931986;28;20176;-86
2022/07/12 01:15:34;;;;;;;4.85;3.83;;;24.00;72.00;;;;;;5009500;28;20080;-86
2022/07/12 01:18:01;;;;;;;4.55;4.10;;;23.90;72.30;;;;;;5015076;28;20531;-84
2022/07/12 01:20:27;;;;;;;4.78;3.80;;;23.90;72.60;;;;;;5017701;28;20204;-86
2022/07/12 01:22:57;;;;;;;5.70;3.85;;;23.70;73.20;;;;;;4965154;28;20068;-86
2022/07/12 01:25:23;;;;;;;4.38;3.97;;;23.70;73.40;;;;;;4917002;28;20125;-85
2022/07/12 01:27:50;;;;;;;4.25;3.65;;;23.70;73.60;;;;;;4930233;28;20045;-86
2022/07/12 01:30:16;;;;;;;4.15;3.63;;;23.70;73.60;;;;;;5013979;28;20043;-84
2022/07/12 01:32:42;;;;;;;5.97;3.80;;;23.80;73.50;;;;;;5017917;28;20039;-84
2022/07/12 01:35:09;;;;;;;3.70;3.40;;;23.70;73.70;;;;;;4932187;28;20033;-84
2022/07/12 01:37:42;;;;;;;6.05;3.80;;;23.70;73.70;;;;;;4948789;28;20397;-86
2022/07/12 01:40:11;;;;;;;4.28;3.30;;;23.60;73.90;;;;;;4985198;28;20054;-85
2022/07/12 01:42:38;;;;;;;4.20;3.80;;;23.60;74.00;;;;;;4951265;28;20035;-84
2022/07/12 01:45:06;;;;;;;6.57;3.60;;;23.60;74.00;;;;;;4952955;28;20042;-85
2022/07/12 01:47:32;;;;;;;4.90;3.83;;;23.70;73.80;;;;;;4967248;28;20041;-83
2022/07/12 01:50:00;;;;;;;4.32;3.88;;;23.70;73.90;;;;;;4966991;28;20167;-84
2022/07/12 01:52:26;;;;;;;5.03;4.13;;;23.80;73.90;;;;;;4966615;28;20082;-83
2022/07/12 01:54:54;;;;;;;6.20;3.75;;;23.70;74.00;;;;;;4966386;28;20828;-82
2022/07/12 01:57:20;;;;;;;4.18;3.85;;;23.70;74.10;;;;;;4983062;28;20038;-83
2022/07/12 01:59:46;;;;;;;5.30;3.97;;;23.70;74.20;;;;;;4934964;28;20070;-84
2022/07/12 02:02:12;;;;;;;6.28;4.45;;;23.80;74.00;;;;;;4969447;28;20085;-82
2022/07/12 02:04:38;;;;;;;4.20;3.80;;;23.70;74.00;;;;;;4943176;28;20038;-85
2022/07/12 02:07:05;;;;;;;7.72;4.60;;;23.70;74.40;;;;;;4955549;28;20039;-84
2022/07/12 02:09:31;;;;;;;5.88;4.32;;;23.80;74.40;;;;;;5003726;28;20045;-83
2022/07/12 02:11:58;;;;;;;4.93;4.20;;;23.70;74.60;;;;;;4981349;28;20038;-86
2022/07/12 02:14:24;;;;;;;7.03;4.18;;;23.70;74.60;;;;;;4987995;28;20153;-86
2022/07/12 02:16:50;;;;;;;6.55;4.60;;;23.70;74.70;;;;;;4970249;28;20038;-85
2022/07/12 02:19:16;;;;;;;6.45;4.65;;;23.70;74.80;;;;;;4970084;28;20125;-83
2022/07/12 02:21:42;;;;;;;5.18;4.35;;;23.70;75.00;;;;;;4987052;28;20037;-83
2022/07/12 02:24:08;;;;;;;4.57;4.18;;;23.70;74.80;;;;;;4939044;28;20124;-83
2022/07/12 02:26:38;;;;;;;4.40;4.00;;;23.70;74.90;;;;;;4938401;28;20057;-82
2022/07/12 02:29:05;;;;;;;5.00;4.60;;;23.70;75.30;;;;;;4953368;28;20564;-83
2022/07/12 02:31:31;;;;;;;6.10;4.45;;;23.70;75.00;;;;;;5002641;28;20061;-83
2022/07/12 02:33:57;;;;;;;6.10;4.03;;;23.70;74.80;;;;;;4986791;28;20042;-83
2022/07/12 02:36:23;;;;;;;4.53;3.88;;;23.70;74.70;;;;;;4969096;28;20080;-85
2022/07/12 02:38:49;;;;;;;5.97;4.28;;;23.70;74.80;;;;;;4953106;28;20108;-82
2022/07/12 02:41:15;;;;;;;6.65;4.90;;;23.70;74.80;;;;;;4969249;28;20497;-82
2022/07/12 02:43:41;;;;;;;5.93;4.15;;;23.60;74.80;;;;;;4969681;28;20026;-82
2022/07/12 02:46:09;;;;;;;4.78;4.35;;;23.60;74.70;;;;;;4969684;28;20408;-83
2022/07/12 02:48:35;;;;;;;5.68;4.75;;;23.60;74.60;;;;;;4986430;28;20053;-82
2022/07/12 02:51:02;;;;;;;5.28;4.50;;;23.70;74.20;;;;;;4938093;28;20080;-83
2022/07/12 02:53:29;;;;;;;6.97;5.00;;;23.70;74.40;;;;;;4954841;28;20091;-83
2022/07/12 02:55:55;;;;;;;5.03;4.43;;;23.60;74.50;;;;;;4952573;28;20030;-83
2022/07/12 02:58:21;;;;;;;10.00;5.18;;;23.60;74.60;;;;;;4969729;28;20088;-85
2022/07/12 03:00:47;;;;;;;9.07;5.43;;;23.60;74.80;;;;;;4969393;28;20046;-85
2022/07/12 03:03:14;;;;;;;5.43;4.70;;;23.60;75.00;;;;;;4984801;28;20039;-88
2022/07/12 03:05:40;;;;;;;6.00;5.47;;;23.60;75.00;;;;;;4953608;28;20088;-87
2022/07/12 03:08:07;;;;;;;6.15;4.80;;;23.70;75.00;;;;;;4970546;28;20121;-89
2022/07/12 03:10:34;;;;;;;5.45;4.57;;;23.60;74.70;;;;;;5002836;28;20424;-89
2022/07/12 03:13:00;;;;;;;4.95;4.53;;;23.60;74.90;;;;;;4968968;28;20313;-86
2022/07/12 03:15:27;;;;;;;6.00;4.82;;;23.50;75.00;;;;;;4969714;28;20101;-87
2022/07/12 03:17:54;;;;;;;6.60;5.85;;;23.60;75.10;;;;;;4986243;28;20039;-87
2022/07/12 03:20:21;;;;;;;6.82;5.90;;;23.60;75.10;;;;;;4950717;28;20041;-87
2022/07/12 03:22:50;;;;;;;6.20;5.35;;;23.60;74.90;;;;;;4984935;28;20034;-86
2022/07/12 03:25:16;;;;;;;7.00;5.32;;;23.60;75.00;;;;;;4953518;28;20630;-86
2022/07/12 03:27:42;;;;;;;5.68;5.18;;;23.60;74.90;;;;;;4954314;28;20386;-88
2022/07/12 03:30:09;;;;;;;8.45;5.22;;;23.60;74.90;;;;;;4953221;28;20038;-85
2022/07/12 03:32:35;;;;;;;7.75;5.43;;;23.60;74.90;;;;;;4964210;28;20037;-85
2022/07/12 03:35:01;;;;;;;9.60;5.90;;;23.60;75.20;;;;;;4968684;28;20749;-83
2022/07/12 03:37:42;;;;;;;7.63;6.00;;;23.60;75.10;;;;;;4986912;28;20257;-84
2022/07/12 03:40:09;;;;;;;6.53;5.88;;;23.60;75.00;;;;;;4986167;28;20150;-82
2022/07/12 03:42:35;;;;;;;8.90;5.93;;;23.60;74.80;;;;;;4985694;28;20030;-83
2022/07/12 03:45:01;;;;;;;10.48;5.93;;;23.60;74.80;;;;;;4985759;28;20033;-83
2022/07/12 03:47:27;;;;;;;7.97;5.88;;;23.60;75.10;;;;;;4952535;28;20041;-85
2022/07/12 03:49:53;;;;;;;8.77;5.93;;;23.60;75.30;;;;;;4985768;28;20034;-83
2022/07/12 03:52:19;;;;;;;7.40;5.88;;;23.60;75.10;;;;;;4952090;28;20046;-83
2022/07/12 03:54:45;;;;;;;7.47;5.68;;;23.60;75.20;;;;;;4968003;28;20035;-82
2022/07/12 03:57:13;;;;;;;11.13;5.88;;;23.60;75.10;;;;;;4986027;28;20417;-85
2022/07/12 03:59:40;;;;;;;6.68;5.85;;;23.60;74.90;;;;;;4936173;28;20066;-86
2022/07/12 04:02:06;;;;;;;6.65;6.05;;;23.60;74.70;;;;;;4998864;28;20030;-87
2022/07/12 04:04:32;;;;;;;6.32;5.55;;;23.60;74.60;;;;;;4969004;28;20031;-86
2022/07/12 04:06:58;;;;;;;11.50;6.20;;;23.60;74.70;;;;;;4950640;28;20572;-88
2022/07/12 04:09:24;;;;;;;9.45;5.97;;;23.60;74.90;;;;;;4952318;28;20061;-87
2022/07/12 04:11:50;;;;;;;9.30;5.70;;;23.60;74.70;;;;;;4985632;28;20031;-88
2022/07/12 04:14:16;;;;;;;8.55;5.60;;;23.60;75.30;;;;;;4974688;28;20492;-85
2022/07/12 04:16:42;;;;;;;6.88;5.72;;;23.60;74.70;;;;;;4936276;28;20026;-85
2022/07/12 04:19:11;;;;;;;7.63;5.80;;;23.60;74.70;;;;;;4985729;28;20033;-82
2022/07/12 04:21:38;;;;;;;8.32;5.82;;;23.60;74.30;;;;;;4951593;28;20030;-84
2022/07/12 04:24:05;;;;;;;6.07;5.47;;;23.60;74.20;;;;;;4984613;28;20493;-84
2022/07/12 04:26:31;;;;;;;7.80;5.55;;;23.70;74.40;;;;;;4967002;28;20121;-81
2022/07/12 04:28:57;;;;;;;8.55;6.18;;;23.70;74.30;;;;;;4951662;28;20396;-82
2022/07/12 04:31:24;;;;;;;6.15;5.38;;;23.70;73.60;;;;;;4952522;28;20026;-84
2022/07/12 04:33:50;;;;;;;8.77;5.68;;;23.70;73.60;;;;;;4951712;28;20038;-81
2022/07/12 04:36:16;;;;;;;8.18;5.68;;;23.70;73.40;;;;;;4951719;28;20123;-86
2022/07/12 04:38:42;;;;;;;10.93;5.53;;;23.70;73.00;;;;;;4952033;28;20176;-86
2022/07/12 04:41:08;;;;;;;7.88;5.35;;;23.70;73.00;;;;;;4937323;28;20585;-83
2022/07/12 04:43:34;;;;;;;6.60;4.90;;;23.70;73.20;;;;;;4968341;28;20027;-87
2022/07/12 04:46:10;;;;;;;6.05;4.93;;;23.70;72.80;;;;;;4949779;28;20046;-86
2022/07/12 04:48:36;;;;;;;5.80;5.10;;;23.80;72.60;;;;;;4967626;28;20043;-85
2022/07/12 04:51:03;;;;;;;8.88;5.20;;;23.80;72.60;;;;;;4968033;28;20061;-84
2022/07/12 04:53:29;;;;;;;5.95;5.30;;;23.70;72.50;;;;;;4983748;28;20409;-83
2022/07/12 04:55:56;;;;;;;5.40;4.75;;;23.70;72.70;;;;;;4950634;28;20456;-83
2022/07/12 04:58:23;;;;;;;6.75;4.97;;;23.60;73.20;;;;;;4952726;28;20030;-83
2022/07/12 05:00:49;;;;;;;12.57;5.80;;;23.60;73.30;;;;;;4999646;28;20049;-83
2022/07/12 05:03:15;;;;;;;7.95;5.50;;;23.70;73.30;;;;;;4967050;28;20041;-83
2022/07/12 05:05:42;;;;;;;7.70;5.32;;;23.70;73.30;;;;;;4967288;28;20041;-84
2022/07/12 05:08:07;;;;;;;9.25;5.22;;;23.70;73.30;;;;;;4967114;28;20069;-83
2022/07/12 05:10:34;;;;;;;7.40;4.88;;;23.70;73.20;;;;;;4967967;28;20087;-83
2022/07/12 05:13:00;;;;;;;7.43;5.20;;;23.70;73.40;;;;;;4999686;28;20038;-83
2022/07/12 05:15:26;;;;;;;6.65;5.38;;;23.70;73.50;;;;;;4984191;28;20030;-83
2022/07/12 05:17:52;;;;;;;6.38;5.22;;;23.70;73.40;;;;;;4950601;28;20528;-84
2022/07/12 05:20:19;;;;;;;7.18;5.28;;;23.60;73.40;;;;;;4986774;28;20092;-82
2022/07/12 05:22:45;;;;;;;8.73;5.22;;;23.60;73.40;;;;;;4967012;28;20038;-82
2022/07/12 05:25:11;;;;;;;9.73;5.28;;;23.70;73.40;;;;;;4968898;28;20121;-81
2022/07/12 05:27:37;;;;;;;10.07;5.88;;;23.60;73.70;;;;;;4952097;28;20043;-82
2022/07/12 05:30:04;;;;;;;5.45;4.85;;;23.70;73.40;;;;;;4984568;28;20031;-81
2022/07/12 05:32:31;;;;;;;7.70;5.47;;;23.60;74.00;;;;;;4999183;28;20138;-82
2022/07/12 05:34:57;;;;;;;6.90;5.50;;;23.60;73.90;;;;;;4966023;28;20037;-81
2022/07/12 05:37:25;;;;;;;8.20;5.35;;;23.60;74.20;;;;;;4984556;28;20022;-82
2022/07/12 05:39:52;;;;;;;7.32;5.47;;;23.60;74.10;;;;;;4966292;28;20103;-83
2022/07/12 05:42:18;;;;;;;9.52;5.60;;;23.70;74.00;;;;;;4983187;28;20034;-82
2022/07/12 05:44:44;;;;;;;8.95;5.47;;;23.70;73.60;;;;;;4990864;28;20058;-79
2022/07/12 05:47:10;;;;;;;7.43;5.13;;;23.80;73.60;;;;;;4965810;28;20031;-80
2022/07/12 05:49:36;;;;;;;8.35;5.60;;;23.80;73.70;;;;;;4983944;28;20136;-78
2022/07/12 05:54:47;;;;;;;6.67;4.63;;;23.80;73.60;;;;;;4982846;28;20045;-79
2022/07/12 05:57:14;;;;;;;7.30;5.10;;;23.70;73.50;;;;;;4983501;28;20038;-80
2022/07/12 05:59:41;;;;;;;7.20;4.78;;;23.80;73.50;;;;;;4984029;28;20045;-87
2022/07/12 06:02:06;;;;;;;11.10;5.03;;;23.80;73.30;;;;;;4967006;28;20501;-85
2022/07/12 06:04:32;;;;;;;10.43;5.22;;;23.80;73.50;;;;;;4970578;28;20351;-84
2022/07/12 06:07:01;;;;;;;9.88;4.78;;;23.80;73.40;;;;;;4967291;28;20092;-81
2022/07/12 06:09:27;;;;;;;8.38;5.30;;;23.90;73.10;;;;;;4966691;28;20386;-85
2022/07/12 06:11:53;;;;;;;11.85;5.05;;;23.90;73.40;;;;;;4984013;28;20039;-80
2022/07/12 06:14:19;;;;;;;11.23;5.10;;;23.90;73.00;;;;;;4998578;28;20043;-83
2022/07/12 06:16:45;;;;;;;6.50;4.25;;;24.00;72.90;;;;;;4998006;28;20055;-83
2022/07/12 06:19:11;;;;;;;6.80;4.72;;;24.00;72.50;;;;;;4966314;28;20041;-82
2022/07/12 06:21:37;;;;;;;9.50;5.28;;;23.90;72.20;;;;;;4965678;28;20047;-83
2022/07/12 06:24:03;;;;;;;9.60;5.00;;;23.90;72.20;;;;;;4965909;28;20647;-84
2022/07/12 06:26:29;;;;;;;8.63;5.20;;;23.90;72.30;;;;;;4949457;28;20154;-81
2022/07/12 06:28:55;;;;;;;8.18;5.35;;;23.90;72.50;;;;;;4983032;28;20599;-78
2022/07/12 06:31:23;;;;;;;8.57;5.13;;;24.00;72.80;;;;;;4984028;28;20037;-82
2022/07/12 06:33:49;;;;;;;6.57;4.43;;;24.00;72.80;;;;;;4981641;28;20088;-81
2022/07/12 06:36:15;;;;;;;5.45;4.88;;;24.00;72.90;;;;;;4965150;28;20058;-82
2022/07/12 06:38:41;;;;;;;7.75;4.82;;;24.00;72.70;;;;;;4965846;28;20104;-81
2022/07/12 06:41:07;;;;;;;9.07;4.60;;;24.10;72.80;;;;;;4983311;28;20516;-82
2022/07/12 06:43:33;;;;;;;7.68;4.85;;;24.00;72.70;;;;;;4984127;28;20138;-83
2022/07/12 06:45:59;;;;;;;8.98;5.60;;;24.00;72.40;;;;;;4950039;28;20050;-85
2022/07/12 06:48:25;;;;;;;11.35;5.15;;;24.00;72.30;;;;;;4952189;28;20031;-82
2022/07/12 06:50:51;;;;;;;9.10;4.80;;;24.00;72.30;;;;;;4986707;28;20042;-82
2022/07/12 06:53:17;;;;;;;7.90;4.50;;;24.00;72.30;;;;;;4952643;28;20517;-85
2022/07/12 06:55:43;;;;;;;8.80;5.13;;;24.00;72.40;;;;;;4969226;28;20034;-84
2022/07/12 06:58:09;;;;;;;9.25;5.20;;;24.00;72.30;;;;;;4986672;28;20049;-80
2022/07/12 07:00:36;;;;;;;9.15;5.22;;;24.00;72.20;;;;;;4985626;28;20058;-79
2022/07/12 07:03:02;;;;;;;10.23;5.28;;;23.90;72.30;;;;;;4987109;28;20035;-80
2022/07/12 07:05:28;;;;;;;6.45;4.60;;;24.00;72.40;;;;;;4991322;28;20030;-80
2022/07/12 07:07:54;;;;;;;9.85;5.35;;;24.10;72.70;;;;;;4991606;28;20049;-81
2022/07/12 07:10:20;;;;;;;7.20;4.82;;;24.00;72.60;;;;;;4991552;28;20042;-79
2022/07/12 07:12:46;;;;;;;12.23;5.38;;;24.00;72.70;;;;;;4990279;28;20038;-80
2022/07/12 07:15:15;;;;;;;10.02;5.28;;;24.00;72.70;;;;;;4973808;28;20038;-80
2022/07/12 07:17:42;;;;;;;7.40;5.07;;;23.90;72.70;;;;;;4973728;28;20141;-80
2022/07/12 07:20:11;;;;;;;13.40;5.78;;;24.00;72.90;;;;;;4941973;28;20412;-84
2022/07/12 07:22:37;;;;;;;9.38;4.75;;;23.90;73.50;;;;;;4991773;28;20040;-83
2022/07/12 07:25:04;;;;;;;10.88;5.10;;;23.90;73.70;;;;;;4973477;28;20042;-91
2022/07/12 07:27:30;;;;;;;7.65;4.25;;;24.10;74.30;;;;;;4924465;28;20035;-81
2022/07/12 07:32:40;;;;;;;5.60;3.80;;;24.30;74.40;;;;;;4964768;28;20031;-82
2022/07/12 07:35:07;;;;;;;11.15;4.70;;;24.50;74.30;;;;;;4955597;28;20091;-84
2022/07/12 07:37:34;;;;;;;8.80;4.78;;;24.60;74.20;;;;;;4972430;28;20049;-79
2022/07/12 07:40:00;;;;;;;9.20;4.63;;;24.70;73.80;;;;;;5072101;28;20091;-83
2022/07/12 07:42:26;;;;;;;5.47;4.57;;;24.80;73.00;;;;;;5035086;28;20475;-84
2022/07/12 07:44:51;;;;;;;7.35;4.20;;;24.80;72.80;;;;;;5023614;28;20101;-85
2022/07/12 07:47:17;;;;;;;6.43;4.32;;;24.80;73.00;;;;;;5046891;28;20031;-85
2022/07/12 07:49:43;;;;;;;5.38;4.13;;;24.90;72.70;;;;;;4956631;28;20073;-86
2022/07/12 07:52:09;;;;;;;5.75;4.05;;;24.90;72.70;;;;;;5069829;28;20039;-85
2022/07/12 07:54:35;;;;;;;5.70;4.45;;;24.90;72.60;;;;;;4986871;28;20614;-87
2022/07/12 07:57:01;;;;;;;8.18;3.97;;;24.90;72.30;;;;;;4979614;28;20039;-86
2022/07/12 07:59:27;;;;;;;5.65;4.00;;;25.00;73.00;;;;;;4986678;28;20130;-81
2022/07/12 08:01:53;;;;;;;5.63;4.55;;;25.00;73.10;;;;;;4971098;28;20105;-77
2022/07/12 08:04:21;;;;;;;6.97;4.22;;;25.00;73.00;;;;;;4971079;28;20133;-76
2022/07/12 08:06:48;;;;;;;7.82;4.40;;;25.10;73.20;;;;;;4972408;28;20121;-81
2022/07/12 08:09:14;;;;;;;6.13;3.90;;;25.20;73.20;;;;;;5049763;28;20035;-80
2022/07/12 08:11:41;;;;;;;8.20;4.53;;;25.20;73.00;;;;;;5054204;28;20029;-82
2022/07/12 08:14:07;;;;;;;7.78;4.20;;;25.40;73.90;;;;;;5040886;28;20080;-77
2022/07/12 08:16:34;;;;;;;6.10;4.28;;;25.50;72.90;;;;;;4971373;28;20034;-78
2022/07/12 08:19:00;;;;;;;8.50;4.15;;;25.50;72.40;;;;;;4971153;28;20085;-79
2022/07/12 08:21:27;;;;;;;7.00;4.10;;;25.60;72.20;;;;;;5057747;28;20402;-78
2022/07/12 08:23:53;;;;;;;6.43;4.45;;;25.60;72.80;;;;;;5026253;28;20062;-78
2022/07/12 08:26:19;;;;;;;8.43;4.38;;;25.70;72.80;;;;;;4970905;28;20539;-78
2022/07/12 08:28:45;;;;;;;5.43;4.30;;;25.70;72.30;;;;;;4974655;28;20077;-76
2022/07/12 08:31:14;;;;;;;7.07;4.30;;;25.70;72.60;;;;;;5091811;28;20059;-76
2022/07/12 08:33:41;;;;;;;7.63;4.20;;;25.70;72.40;;;;;;4988770;28;20084;-77
2022/07/12 08:36:08;;;;;;;10.85;4.25;;;25.80;72.40;;;;;;4969516;28;20104;-76
2022/07/12 08:38:36;;;;;;;8.30;4.15;;;25.80;72.40;;;;;;4965391;28;20492;-76
2022/07/12 08:41:06;;;;;;;8.50;4.30;;;25.80;72.10;;;;;;4964859;28;20051;-74
2022/07/12 08:43:35;;;;;;;7.30;4.45;;;25.80;72.00;;;;;;4965299;28;20080;-76
2022/07/12 08:46:09;;;;;;;10.35;3.92;;;25.80;72.80;;;;;;4965377;28;20039;-77
2022/07/12 08:48:35;;;;;;;9.23;4.25;;;25.90;73.30;;;;;;4965270;28;20062;-75
2022/07/12 08:51:09;;;;;;;7.60;3.97;;;25.90;72.90;;;;;;4965282;28;20045;-75
2022/07/12 08:53:36;;;;;;;9.07;4.43;;;25.90;72.80;;;;;;4964967;28;20031;-77
2022/07/12 08:56:06;;;;;;;9.45;4.05;;;26.00;72.10;;;;;;4964973;28;20039;-77
2022/07/12 08:58:32;;;;;;;12.73;4.05;;;26.00;72.70;;;;;;4964017;28;20117;-76
2022/07/12 09:00:58;;;;;;;10.25;4.00;;;26.00;72.90;;;;;;4965061;28;20412;-76
2022/07/12 09:03:24;;;;;;;15.07;4.13;;;26.00;72.40;;;;;;4965528;28;20512;-76
2022/07/12 09:05:56;;;;;;;6.13;3.80;;;26.00;72.90;;;;;;4965421;28;20176;-76
2022/07/12 09:08:34;;;;;;;8.18;4.03;;;26.00;72.00;;;;;;4964693;28;20126;-76
2022/07/12 09:11:02;;;;;;;6.43;4.03;;;26.10;72.60;;;;;;4964511;28;20038;-76
2022/07/12 09:13:47;;;;;;;7.35;4.05;;;26.10;72.60;;;;;;4961515;28;20038;-76
2022/07/12 09:16:14;;;;;;;8.10;3.40;;;26.10;72.60;;;;;;5069919;28;20498;-76
2022/07/12 09:18:41;;;;;;;7.07;4.00;;;26.10;72.30;;;;;;4983576;28;20286;-75
2022/07/12 09:21:07;;;;;;;8.35;3.40;;;26.10;72.20;;;;;;4964388;28;20123;-75
2022/07/12 09:23:33;;;;;;;4.53;3.50;;;26.10;72.50;;;;;;4963658;28;20097;-76
2022/07/12 09:25:58;;;;;;;5.38;3.58;;;26.10;72.20;;;;;;4963651;28;20043;-75
2022/07/12 09:28:24;;;;;;;4.72;3.55;;;26.20;71.90;;;;;;4965616;28;20035;-76
2022/07/12 09:30:53;;;;;;;5.90;3.60;;;26.20;71.60;;;;;;4964976;28;20035;-76
2022/07/12 09:36:17;;;;;;;5.78;3.30;;;26.20;71.00;;;;;;4964028;28;20114;-76
2022/07/12 09:38:54;;;;;;;4.72;3.58;;;26.20;71.90;;;;;;4966755;28;20039;-77
2022/07/12 09:41:23;;;;;;;5.65;3.67;;;26.20;72.30;;;;;;5045284;28;20083;-76
2022/07/12 09:43:50;;;;;;;5.10;3.53;;;26.20;72.30;;;;;;5039931;28;20029;-75
2022/07/12 09:46:17;;;;;;;6.78;3.33;;;26.20;71.40;;;;;;5045596;28;20048;-76
2022/07/12 09:48:45;;;;;;;3.65;3.05;;;26.20;72.70;;;;;;5045030;28;20399;-76
2022/07/12 09:51:14;;;;;;;3.70;3.40;;;26.20;73.00;;;;;;5043303;28;20507;-76
2022/07/12 09:53:48;;;;;;;7.78;3.15;;;26.20;71.60;;;;;;5045410;28;20056;-75
2022/07/12 09:56:16;;;;;;;4.53;2.78;;;26.20;70.30;;;;;;5044489;28;20041;-75
2022/07/12 09:58:59;;;;;;;9.10;3.38;;;26.30;70.70;;;;;;5045956;28;20041;-74
2022/07/12 10:01:26;;;;;;;5.05;3.10;;;26.30;71.10;;;;;;5044923;28;20044;-75
2022/07/12 10:03:53;;;;;;;5.18;3.08;;;26.30;71.10;;;;;;5045946;28;20682;-77
2022/07/12 10:06:27;;;;;;;5.63;3.42;;;26.30;71.80;;;;;;5045621;28;20037;-78
2022/07/12 10:08:55;;;;;;;7.78;3.25;;;26.30;70.10;;;;;;5045954;28;20041;-78
2022/07/12 10:11:22;;;;;;;6.88;3.28;;;26.30;69.30;;;;;;5045526;28;20033;-75
2022/07/12 10:13:49;;;;;;;4.68;3.42;;;26.30;69.50;;;;;;5044684;28;20037;-75
2022/07/12 10:16:24;;;;;;;6.30;3.30;;;26.30;69.80;;;;;;5045428;28;20044;-75
2022/07/12 10:19:25;;;;;;;7.57;3.25;;;26.30;69.50;;;;;;5045117;28;20124;-75
2022/07/12 10:21:53;;;;;;;6.47;3.20;;;26.30;67.50;;;;;;5039529;28;20451;-75
2022/07/12 10:24:31;;;;;;;3.42;3.05;;;26.30;69.70;;;;;;5049196;28;20043;-74
2022/07/12 10:27:12;;;;;;;6.38;3.47;;;26.30;69.00;;;;;;5048863;28;20114;-75
2022/07/12 10:29:42;;;;;;;5.43;3.22;;;26.30;69.20;;;;;;5048987;28;20430;-75
2022/07/12 10:32:20;;;;;;;3.58;3.28;;;26.30;69.40;;;;;;5047786;28;20052;-75
2022/07/12 10:35:01;;;;;;;4.60;3.42;;;26.30;69.30;;;;;;5048665;28;20040;-75
2022/07/12 10:37:29;;;;;;;5.63;3.45;;;26.30;68.70;;;;;;5048978;28;20032;-75
2022/07/12 10:40:10;;;;;;;3.30;3.00;;;26.30;69.30;;;;;;5007754;28;20051;-74
2022/07/12 10:42:36;;;;;;;3.67;2.97;;;26.30;69.20;;;;;;4966970;28;20062;-74
2022/07/12 10:45:14;;;;;;;3.40;2.75;;;26.30;67.90;;;;;;5026640;28;20032;-75
2022/07/12 10:48:01;;;;;;;3.88;2.95;;;26.30;68.80;;;;;;5029705;28;20050;-75
2022/07/12 10:50:45;;;;;;;5.38;2.90;;;26.30;69.10;;;;;;4966536;28;20551;-75
2022/07/12 10:53:30;;;;;;;4.03;2.70;;;26.30;67.10;;;;;;4966969;28;20512;-75
2022/07/12 10:56:19;;;;;;;5.78;2.80;;;26.30;69.80;;;;;;4965372;28;20505;-74
2022/07/12 10:58:52;;;;;;;26.50;2.38;;;26.40;70.20;;;;;;4966862;28;20035;-74
2022/07/12 11:01:23;;;;;;;4.40;2.22;;;26.40;68.50;;;;;;4965523;28;20035;-74
2022/07/12 11:03:50;;;;;;;4.72;2.03;;;26.40;68.10;;;;;;4966629;28;20035;-74
2022/07/12 11:06:22;;;;;;;3.95;1.90;;;26.40;67.40;;;;;;4965722;28;20445;-73
2022/07/12 11:08:57;;;;;;;4.25;1.60;;;26.40;67.20;;;;;;4966401;28;20038;-74
2022/07/12 11:11:28;;;;;;;2.13;1.70;;;26.40;66.50;;;;;;4966755;28;20030;-75
2022/07/12 11:13:56;;;;;;;4.20;1.55;;;26.40;66.30;;;;;;4966214;28;20242;-74
2022/07/12 11:16:23;;;;;;;3.35;1.52;;;26.50;67.30;;;;;;4967110;28;20055;-75
2022/07/12 11:18:50;;;;;;;2.45;1.30;;;26.50;66.90;;;;;;4966776;28;20745;-75
2022/07/12 11:21:17;;;;;;;1.70;1.10;;;26.40;65.70;;;;;;4965870;28;20418;-74
2022/07/12 11:23:43;;;;;;;1.50;1.40;;;26.40;66.20;;;;;;5011606;28;20453;-74
2022/07/12 11:26:10;;;;;;;1.38;1.25;;;26.40;66.20;;;;;;5072417;28;20481;-74
2022/07/12 11:28:38;;;;;;;2.20;0.85;;;26.40;64.40;;;;;;5071077;28;20032;-73
2022/07/12 11:31:06;;;;;;;2.85;0.90;;;26.40;63.10;;;;;;4968334;28;20034;-74
2022/07/12 11:33:37;;;;;;;2.03;1.00;;;26.40;63.30;;;;;;4965902;28;20042;-74
2022/07/12 11:36:06;;;;;;;4.70;1.02;;;26.40;62.40;;;;;;4965984;28;20394;-75
2022/07/12 11:38:35;;;;;;;5.72;1.13;;;26.40;62.80;;;;;;4965717;28;20445;-77
2022/07/12 11:41:03;;;;;;;2.03;0.80;;;26.40;62.10;;;;;;4965586;28;20054;-74
2022/07/12 11:43:30;;;;;;;2.17;0.80;;;26.40;62.30;;;;;;4966452;28;20050;-74
2022/07/12 11:45:56;;;;;;;1.35;0.55;;;26.40;61.90;;;;;;4965448;28;20042;-74
2022/07/12 11:48:23;;;;;;;1.02;0.70;;;26.40;62.90;;;;;;5040219;28;20112;-74
2022/07/12 11:50:54;;;;;;;1.15;0.80;;;26.40;62.50;;;;;;5011111;28;20386;-74
2022/07/12 11:53:21;;;;;;;2.45;0.70;;;26.40;60.60;;;;;;4965644;28;20100;-74
2022/07/12 11:55:49;;;;;;;4.80;0.93;;;26.40;61.80;;;;;;4965269;28;20035;-74
2022/07/12 11:58:17;;;;;;;2.08;0.60;;;26.30;62.40;;;;;;4965363;28;20046;-75
2022/07/12 12:00:44;;;;;;;4.10;0.80;;;26.40;62.90;;;;;;4966911;28;20047;-73
2022/07/12 12:03:11;;;;;;;1.55;0.70;;;26.40;62.70;;;;;;4965993;28;20043;-75
2022/07/12 12:05:38;;;;;;;3.40;1.05;;;26.40;63.40;;;;;;5000515;28;20032;-75
2022/07/12 12:08:07;;;;;;;1.83;0.90;;;26.40;63.30;;;;;;5055765;28;20039;-75
2022/07/12 12:10:34;;;;;;;3.70;0.88;;;26.50;63.50;;;;;;4966248;28;20038;-74
2022/07/12 12:13:01;;;;;;;6.78;1.00;;;26.40;63.40;;;;;;4965802;28;20034;-75
2022/07/12 12:15:28;;;;;;;3.10;1.10;;;26.40;62.90;;;;;;4965306;28;20045;-79
2022/07/12 12:17:59;;;;;;;4.32;1.05;;;26.50;63.30;;;;;;4934447;28;20047;-76
2022/07/12 12:20:27;;;;;;;1.70;0.65;;;26.50;63.90;;;;;;4965599;28;20039;-76
2022/07/12 12:22:58;;;;;;;2.38;0.80;;;26.50;63.20;;;;;;4965553;28;20146;-74
2022/07/12 12:25:25;;;;;;;5.47;1.10;;;26.50;63.50;;;;;;4966075;28;20023;-73
2022/07/12 12:27:56;;;;;;;4.38;1.10;;;26.50;63.50;;;;;;4963772;28;20175;-75
2022/07/12 12:30:22;;;;;;;4.65;1.05;;;26.50;63.20;;;;;;4965285;28;20034;-73
2022/07/12 12:32:56;;;;;;;2.60;1.27;;;26.50;63.70;;;;;;4964934;28;20582;-72
2022/07/12 12:35:43;;;;;;;3.03;1.00;;;26.50;64.50;;;;;;4965477;28;20118;-73
2022/07/12 12:38:16;;;;;;;1.10;1.00;;;26.50;64.90;;;;;;4964770;28;20057;-73
2022/07/12 12:40:51;;;;;;;2.33;0.90;;;26.50;64.30;;;;;;4964838;28;20137;-74
2022/07/12 12:43:21;;;;;;;0.88;0.80;;;26.50;64.20;;;;;;4965652;28;20023;-74
2022/07/12 12:45:50;;;;;;;1.17;0.85;;;26.50;63.50;;;;;;4964572;28;20031;-73
2022/07/12 12:48:21;;;;;;;2.35;0.95;;;26.50;63.10;;;;;;4964265;28;20096;-73
2022/07/12 12:50:50;;;;;;;3.22;1.20;;;26.50;63.70;;;;;;5003666;28;20040;-73
2022/07/12 12:53:21;;;;;;;4.40;1.10;;;26.50;62.60;;;;;;5065541;28;20084;-76
2022/07/12 12:55:50;;;;;;;7.57;1.70;;;26.50;61.80;;;;;;5066196;28;20024;-76
2022/07/12 12:58:16;;;;;;;5.07;1.75;;;26.50;62.60;;;;;;5066293;28;20514;-76